Time;durP1;ratioP1;P1;durP2;ratioP2;P2;SDS_P1;SDS_P2;PMS_P1;PMS_P2;Temp;Humidity;BMP_temperature;BMP_pressure;BME280_temperature;BME280_humidity;BME280_pressure;Samples;Min_cycle;Max_cycle;Signal;HPM_P1;HPM_P2
2023/01/17 00:00:28;;;;;;;;;;;;;;;15.34;55.53;98076.88;2119596;28;19959;-60
2023/01/17 00:01:32;;;;;;;;;;;;;;;15.35;55.66;98077.66;2113216;28;19934;-59
2023/01/17 00:02:35;;;;;;;;;;;;;;;15.34;55.58;98079.59;2113113;28;19923;-59
2023/01/17 00:09:51;;;;;;;;;;;;;;;15.34;55.72;98082.31;2113307;28;20039;-60
2023/01/17 00:10:23;;;;;;;;;;;;;;;15.32;55.50;98098.28;2121740;28;19927;-60
2023/01/17 00:11:24;;;;;;;;;;;;;;;15.32;55.72;98090.16;2113272;28;20370;-60
2023/01/17 00:12:28;;;;;;;;;;;;;;;15.31;55.51;98094.06;2115196;27;19928;-58
2023/01/17 00:13:30;;;;;;;;;;;;;;;15.31;55.50;98094.06;2114872;28;19978;-59
2023/01/17 00:14:32;;;;;;;;;;;;;;;15.32;55.72;98097.56;2121322;27;19964;-59
2023/01/17 00:15:36;;;;;;;;;;;;;;;15.31;55.68;98094.06;2120941;27;19927;-59
2023/01/17 00:16:37;;;;;;;;;;;;;;;15.31;55.66;98093.31;2114770;28;19954;-58
2023/01/17 00:17:40;;;;;;;;;;;;;;;15.31;55.70;98091.34;2114753;27;19939;-59
2023/01/17 00:26:01;;;;;;;;;;;;;;;15.31;55.75;98104.19;2114836;27;19934;-59
2023/01/17 01:34:20;;;;;;;;;;;;;;;15.16;55.32;98198.25;2118840;27;19935;-57
2023/01/17 01:35:22;;;;;;;;;;;;;;;15.16;55.20;98206.41;2117772;27;19988;-59
2023/01/17 01:36:24;;;;;;;;;;;;;;;15.15;55.30;98200.19;2122191;27;19924;-58
2023/01/17 01:37:26;;;;;;;;;;;;;;;15.15;55.30;98211.06;2108628;28;19931;-59
2023/01/17 01:38:28;;;;;;;;;;;;;;;15.15;55.23;98210.28;2113787;28;19927;-57
2023/01/17 01:39:31;;;;;;;;;;;;;;;15.14;55.12;98215.00;2121629;27;19927;-59
2023/01/17 01:40:34;;;;;;;;;;;;;;;15.15;55.38;98219.22;2117142;27;19935;-58
2023/01/17 01:41:35;;;;;;;;;;;;;;;15.14;55.19;98220.41;2116451;27;20268;-59
2023/01/17 01:42:47;;;;;;;;;;;;;;;15.14;55.40;98231.28;2114145;28;20654;-56
2023/01/17 01:43:52;;;;;;;;;;;;;;;15.15;55.07;98232.81;2114519;27;19931;-58
2023/01/17 01:44:55;;;;;;;;;;;;;;;15.14;55.13;98247.59;2114063;28;19924;-55
2023/01/17 01:45:57;;;;;;;;;;;;;;;15.13;55.31;98254.22;2114187;28;19935;-58
2023/01/17 01:47:00;;;;;;;;;;;;;;;15.13;55.32;98250.75;2121240;27;20377;-58
2023/01/17 01:48:05;;;;;;;;;;;;;;;15.13;55.12;98243.34;2117784;27;20500;-58
2023/01/17 01:49:14;;;;;;;;;;;;;;;15.13;55.25;98248.03;2115534;27;19928;-56
2023/01/17 01:50:17;;;;;;;;;;;;;;;15.13;55.25;98240.63;2114450;28;20310;-60
2023/01/17 01:51:21;;;;;;;;;;;;;;;15.11;55.03;98245.72;2114100;28;19934;-52
2023/01/17 01:52:25;;;;;;;;;;;;;;;15.12;55.24;98249.97;2113911;28;19946;-59
2023/01/17 01:53:28;;;;;;;;;;;;;;;15.11;55.01;98243.00;2113988;28;19947;-57
2023/01/17 01:54:35;;;;;;;;;;;;;;;15.11;55.28;98253.88;2113722;28;20398;-59
2023/01/17 01:55:39;;;;;;;;;;;;;;;15.11;55.26;98256.59;2114171;28;19934;-57
2023/01/17 01:56:41;;;;;;;;;;;;;;;15.11;55.37;98261.28;2120939;27;20363;-59
2023/01/17 01:57:47;;;;;;;;;;;;;;;15.10;55.17;98263.22;2114591;27;19935;-55
2023/01/17 01:58:50;;;;;;;;;;;;;;;15.11;55.28;98259.31;2117191;27;19934;-53
2023/01/17 01:59:55;;;;;;;;;;;;;;;15.11;55.20;98245.72;2113404;28;19928;-58
2023/01/17 02:00:57;;;;;;;;;;;;;;;15.11;55.17;98250.41;2112575;28;19927;-57
2023/01/17 02:01:59;;;;;;;;;;;;;;;15.10;55.29;98254.31;2116921;27;20492;-58
2023/01/17 02:03:03;;;;;;;;;;;;;;;15.10;55.73;98243.44;2122574;27;19928;-58
2023/01/17 02:04:08;;;;;;;;;;;;;;;15.10;55.06;98243.44;2121978;27;19930;-59
2023/01/17 02:05:12;;;;;;;;;;;;;;;15.09;55.30;98250.84;2119673;27;19930;-58
2023/01/17 02:06:21;;;;;;;;;;;;;;;15.09;55.13;98248.13;2112213;28;19957;-59
2023/01/17 02:07:24;;;;;;;;;;;;;;;15.09;55.21;98250.84;2110486;28;19935;-58
2023/01/17 02:08:27;;;;;;;;;;;;;;;15.09;55.37;98247.38;2114201;28;19924;-57
2023/01/17 02:09:29;;;;;;;;;;;;;;;15.09;55.26;98267.16;2113951;28;20525;-58
2023/01/17 02:10:33;;;;;;;;;;;;;;;15.09;55.15;98260.94;2113766;28;19931;-58
2023/01/17 02:11:36;;;;;;;;;;;;;;;15.08;55.31;98259.44;2114118;28;19931;-59
2023/01/17 02:12:39;;;;;;;;;;;;;;;15.08;55.36;98259.44;2113469;28;20033;-59
2023/01/17 02:13:41;;;;;;;;;;;;;;;15.07;55.11;98269.53;2113633;28;19930;-60
2023/01/17 02:14:44;;;;;;;;;;;;;;;15.07;55.16;98264.09;2113999;28;19928;-58
2023/01/17 02:15:53;;;;;;;;;;;;;;;15.08;55.40;98271.03;2113913;28;19931;-59
2023/01/17 02:17:03;;;;;;;;;;;;;;;15.08;55.17;98271.03;2113574;27;19931;-59
2023/01/17 02:18:09;;;;;;;;;;;;;;;15.07;55.42;98274.97;2114045;27;19931;-59
2023/01/17 02:19:20;;;;;;;;;;;;;;;15.07;55.09;98277.69;2113799;28;20277;-58
2023/01/17 02:20:45;;;;;;;;;;;;;;;15.07;55.24;98274.19;2113762;27;19931;-58
2023/01/17 02:21:53;;;;;;;;;;;;;;;15.07;55.02;98285.84;2104396;28;19939;-56
2023/01/17 02:23:09;;;;;;;;;;;;;;;15.05;55.33;98282.78;2105575;28;19924;-59
2023/01/17 02:24:26;;;;;;;;;;;;;;;15.06;55.29;98287.03;2113776;28;19923;-58
2023/01/17 02:25:42;;;;;;;;;;;;;;;15.06;55.37;98294.44;2113715;28;19927;-57
2023/01/17 02:26:49;;;;;;;;;;;;;;;15.04;55.25;98297.56;2116183;27;19936;-60
2023/01/17 02:27:57;;;;;;;;;;;;;;;15.06;55.43;98300.63;2122059;27;20385;-59
2023/01/17 02:29:09;;;;;;;;;;;;;;;15.05;55.14;98309.97;2121938;27;20374;-59
2023/01/17 02:30:22;;;;;;;;;;;;;;;15.05;55.41;98317.38;2117463;27;20035;-59
2023/01/17 02:31:26;;;;;;;;;;;;;;;15.04;55.15;98313.88;2113848;27;19928;-58
2023/01/17 02:32:35;;;;;;;;;;;;;;;15.04;55.32;98319.31;2116952;27;19933;-59
2023/01/17 02:33:42;;;;;;;;;;;;;;;15.04;55.29;98330.19;2121039;27;19927;-59
2023/01/17 02:34:46;;;;;;;;;;;;;;;15.04;55.10;98330.19;2103979;28;19935;-58
2023/01/17 02:35:52;;;;;;;;;;;;;;;15.03;55.14;98328.66;2108483;28;19928;-59
2023/01/17 02:36:59;;;;;;;;;;;;;;;15.04;54.53;98332.91;2113679;27;19924;-59
2023/01/17 02:38:07;;;;;;;;;;;;;;;15.03;55.18;98323.25;2113707;28;19923;-59
2023/01/17 02:39:14;;;;;;;;;;;;;;;15.03;55.00;98317.81;2114161;27;19927;-58
2023/01/17 02:40:18;;;;;;;;;;;;;;;15.02;54.89;98314.31;2114336;27;19928;-58
2023/01/17 02:41:22;;;;;;;;;;;;;;;15.01;55.03;98309.31;2118826;27;19927;-60
2023/01/17 02:42:31;;;;;;;;;;;;;;;15.01;54.98;98315.50;2118982;27;19927;-57
2023/01/17 02:43:34;;;;;;;;;;;;;;;15.00;55.12;98305.81;2116330;27;19942;-57
2023/01/17 02:44:39;;;;;;;;;;;;;;;15.02;55.02;98316.25;2118145;27;19923;-59
2023/01/17 02:45:44;;;;;;;;;;;;;;;15.00;55.13;98305.81;2119425;27;19927;-59
2023/01/17 02:46:46;;;;;;;;;;;;;;;15.01;55.28;98312.03;2120071;27;19987;-60
2023/01/17 02:47:49;;;;;;;;;;;;;;;15.01;55.14;98298.44;2113466;27;19928;-59
2023/01/17 02:48:51;;;;;;;;;;;;;;;15.01;55.15;98312.03;2118674;27;19934;-59
2023/01/17 02:49:55;;;;;;;;;;;;;;;15.00;55.23;98313.97;2114923;27;19928;-59
2023/01/17 02:51:11;;;;;;;;;;;;;;;15.00;54.94;98313.19;2119651;27;19935;-57
2023/01/17 02:52:21;;;;;;;;;;;;;;;15.00;55.00;98318.63;2113433;28;19932;-59
2023/01/17 02:53:30;;;;;;;;;;;;;;;14.99;54.95;98322.56;2113521;28;20390;-60
2023/01/17 02:54:43;;;;;;;;;;;;;;;15.00;54.73;98318.63;2113541;28;19935;-58
2023/01/17 02:55:50;;;;;;;;;;;;;;;14.99;55.24;98326.03;2116638;27;19927;-59
2023/01/17 02:56:56;;;;;;;;;;;;;;;14.99;55.28;98322.56;2113345;28;19931;-59
2023/01/17 02:58:06;;;;;;;;;;;;;;;14.98;55.19;98327.22;2116659;27;19986;-58
2023/01/17 02:59:13;;;;;;;;;;;;;;;14.98;55.24;98326.47;2122013;27;19942;-56
2023/01/17 03:00:20;;;;;;;;;;;;;;;14.98;54.89;98332.66;2108532;28;20015;-57
2023/01/17 03:01:26;;;;;;;;;;;;;;;14.98;55.22;98337.34;2105183;28;19935;-55
2023/01/17 03:02:32;;;;;;;;;;;;;;;14.98;55.10;98331.91;2104547;28;19950;-56
2023/01/17 03:03:38;;;;;;;;;;;;;;;14.98;55.14;98337.34;2104962;28;19924;-58
2023/01/17 03:04:46;;;;;;;;;;;;;;;14.98;55.08;98342.78;2113590;27;19931;-58
2023/01/17 03:05:50;;;;;;;;;;;;;;;14.97;54.91;98336.56;2113928;27;19928;-58
2023/01/17 03:06:55;;;;;;;;;;;;;;;14.97;54.82;98346.66;2118751;27;20378;-55
2023/01/17 03:07:57;;;;;;;;;;;;;;;14.97;54.98;98362.97;2121935;27;19927;-53
2023/01/17 03:09:00;;;;;;;;;;;;;;;14.97;54.80;98362.97;2122049;27;19948;-58
2023/01/17 03:10:04;;;;;;;;;;;;;;;14.97;54.99;98368.41;2107590;28;19935;-58
2023/01/17 03:11:07;;;;;;;;;;;;;;;14.96;54.82;98350.59;2104475;28;19946;-58
2023/01/17 03:12:08;;;;;;;;;;;;;;;14.96;54.87;98340.50;2113477;28;19935;-58
2023/01/17 03:13:11;;;;;;;;;;;;;;;14.95;55.15;98343.63;2113615;28;19939;-58
2023/01/17 03:14:13;;;;;;;;;;;;;;;14.96;54.81;98347.88;2113662;28;20314;-58
2023/01/17 03:15:17;;;;;;;;;;;;;;;14.96;54.92;98350.59;2113534;28;20439;-58
2023/01/17 03:16:19;;;;;;;;;;;;;;;14.95;54.81;98360.69;2113373;28;19924;-57
2023/01/17 03:17:25;;;;;;;;;;;;;;;14.94;54.93;98358.41;2113915;28;19927;-58
2023/01/17 03:18:26;;;;;;;;;;;;;;;14.94;55.02;98355.69;2113366;28;19947;-59
2023/01/17 03:19:30;;;;;;;;;;;;;;;14.94;54.96;98355.69;2116304;27;20297;-58
2023/01/17 03:20:31;;;;;;;;;;;;;;;14.94;54.74;98344.81;2122144;27;20245;-58
2023/01/17 03:21:34;;;;;;;;;;;;;;;14.94;54.96;98369.25;2114539;28;19929;-58
2023/01/17 03:22:35;;;;;;;;;;;;;;;14.93;54.72;98356.88;2114141;28;19928;-59
2023/01/17 03:23:38;;;;;;;;;;;;;;;14.93;54.71;98362.31;2113576;28;20007;-59
2023/01/17 03:24:41;;;;;;;;;;;;;;;14.93;54.81;98362.31;2114303;28;19951;-59
2023/01/17 03:25:42;;;;;;;;;;;;;;;14.92;54.76;98358.81;2105103;28;20288;-54
2023/01/17 03:26:46;;;;;;;;;;;;;;;14.93;54.77;98359.59;2112900;28;19931;-58
2023/01/17 03:27:48;;;;;;;;;;;;;;;14.93;54.75;98365.03;2115777;28;19932;-53
2023/01/17 03:28:50;;;;;;;;;;;;;;;14.92;54.91;98366.25;2113870;28;19924;-55
2023/01/17 03:29:52;;;;;;;;;;;;;;;14.92;54.70;98371.66;2113699;28;19928;-58
2023/01/17 03:30:54;;;;;;;;;;;;;;;14.92;54.65;98371.66;2114314;28;19931;-58
2023/01/17 03:31:57;;;;;;;;;;;;;;;14.92;54.96;98371.66;2113741;28;20446;-59
2023/01/17 03:33:01;;;;;;;;;;;;;;;14.92;54.81;98380.56;2113287;28;19927;-58
2023/01/17 03:34:02;;;;;;;;;;;;;;;14.91;54.98;98375.56;2110928;28;19931;-59
2023/01/17 03:35:05;;;;;;;;;;;;;;;14.91;54.94;98381.00;2104389;28;20415;-59
2023/01/17 03:36:07;;;;;;;;;;;;;;;14.91;55.18;98387.19;2115479;28;19934;-58
2023/01/17 03:37:10;;;;;;;;;;;;;;;14.91;54.65;98381.78;2115457;28;19938;-59
2023/01/17 03:38:11;;;;;;;;;;;;;;;14.91;54.87;98387.19;2113683;28;19927;-58
2023/01/17 03:39:14;;;;;;;;;;;;;;;14.91;54.83;98381.00;2117938;28;19932;-56
2023/01/17 03:40:16;;;;;;;;;;;;;;;14.90;54.78;98387.63;2112879;28;19928;-58
2023/01/17 03:41:18;;;;;;;;;;;;;;;14.90;54.78;98393.81;2104515;28;19928;-57
2023/01/17 03:42:20;;;;;;;;;;;;;;;14.89;54.69;98389.56;2113345;28;19928;-59
2023/01/17 03:43:24;;;;;;;;;;;;;;;14.89;54.67;98394.25;2113223;28;19934;-57
2023/01/17 03:44:25;;;;;;;;;;;;;;;14.90;54.80;98403.94;2113547;28;19928;-59
2023/01/17 03:45:28;;;;;;;;;;;;;;;14.90;54.56;98401.22;2115904;28;19935;-59
2023/01/17 03:46:30;;;;;;;;;;;;;;;14.89;54.56;98399.66;2120005;27;19972;-59
2023/01/17 03:47:34;;;;;;;;;;;;;;;14.90;54.82;98406.66;2121004;27;20442;-56
2023/01/17 03:48:40;;;;;;;;;;;;;;;14.88;54.53;98409.78;2122841;27;19931;-58
2023/01/17 03:49:42;;;;;;;;;;;;;;;14.88;54.69;98414.47;2123402;27;20392;-58
2023/01/17 03:50:44;;;;;;;;;;;;;;;14.88;54.48;98417.16;2119251;27;19935;-57
2023/01/17 03:51:46;;;;;;;;;;;;;;;14.88;54.81;98414.47;2106745;28;19928;-58
2023/01/17 03:52:48;;;;;;;;;;;;;;;14.87;54.54;98415.66;2114407;28;20029;-56
2023/01/17 03:53:50;;;;;;;;;;;;;;;14.88;54.48;98419.88;2120008;27;19930;-58
2023/01/17 03:54:53;;;;;;;;;;;;;;;14.88;54.65;98417.16;2118296;27;19962;-54
2023/01/17 03:55:54;;;;;;;;;;;;;;;14.87;54.47;98421.09;2123514;27;19923;-56
2023/01/17 03:56:57;;;;;;;;;;;;;;;14.86;54.59;98420.31;2119203;27;20010;-59
2023/01/17 03:57:59;;;;;;;;;;;;;;;14.86;54.59;98435.84;2115011;28;19927;-59
2023/01/17 03:59:02;;;;;;;;;;;;;;;14.86;54.49;98419.53;2122027;27;19928;-59
2023/01/17 04:00:04;;;;;;;;;;;;;;;14.86;54.46;98438.56;2122879;27;19935;-61
2023/01/17 04:01:08;;;;;;;;;;;;;;;14.86;54.56;98433.13;2118838;27;19931;-59
2023/01/17 04:02:10;;;;;;;;;;;;;;;14.86;54.58;98422.25;2115415;27;19928;-59
2023/01/17 04:03:12;;;;;;;;;;;;;;;14.85;54.56;98429.66;2115393;27;19994;-59
2023/01/17 04:04:15;;;;;;;;;;;;;;;14.85;54.44;98437.03;2114957;28;19928;-59
2023/01/17 04:05:18;;;;;;;;;;;;;;;14.85;54.34;98428.91;2109858;28;19927;-57
2023/01/17 04:06:19;;;;;;;;;;;;;;;14.83;54.42;98434.75;2114056;28;19934;-60
2023/01/17 04:07:22;;;;;;;;;;;;;;;14.83;54.49;98428.56;2123569;27;19931;-55
2023/01/17 04:08:24;;;;;;;;;;;;;;;14.83;54.65;98433.97;2121448;27;20644;-59
2023/01/17 04:09:26;;;;;;;;;;;;;;;14.83;54.64;98433.97;2117298;27;19931;-58
2023/01/17 04:10:29;;;;;;;;;;;;;;;14.83;54.53;98434.75;2121539;27;19927;-58
2023/01/17 04:11:30;;;;;;;;;;;;;;;14.83;54.24;98433.97;2122725;27;19935;-58
2023/01/17 04:12:35;;;;;;;;;;;;;;;14.83;54.84;98433.97;2123172;27;19927;-58
2023/01/17 04:13:37;;;;;;;;;;;;;;;14.83;54.30;98439.41;2116648;27;19934;-58
2023/01/17 04:14:40;;;;;;;;;;;;;;;14.81;54.22;98442.56;2115498;27;20374;-59
2023/01/17 04:15:44;;;;;;;;;;;;;;;14.82;54.30;98443.34;2123482;27;19928;-58
2023/01/17 04:16:47;;;;;;;;;;;;;;;14.82;54.21;98435.19;2122988;27;19935;-57
2023/01/17 04:17:49;;;;;;;;;;;;;;;14.82;54.37;98443.34;2117432;27;19977;-56
2023/01/17 04:18:51;;;;;;;;;;;;;;;14.80;54.39;98441.03;2123387;27;19927;-58
2023/01/17 04:19:54;;;;;;;;;;;;;;;14.81;54.36;98441.78;2118421;27;19935;-58
2023/01/17 04:20:57;;;;;;;;;;;;;;;14.80;54.50;98440.28;2114559;28;19927;-57
2023/01/17 04:21:58;;;;;;;;;;;;;;;14.80;54.18;98441.03;2114573;28;19924;-59
2023/01/17 04:23:01;;;;;;;;;;;;;;;14.80;54.31;98443.75;2117712;27;19980;-59
2023/01/17 04:24:03;;;;;;;;;;;;;;;14.80;54.13;98440.28;2123204;27;19941;-57
2023/01/17 04:25:06;;;;;;;;;;;;;;;14.79;54.39;98439.50;2123247;27;19931;-59
2023/01/17 04:26:07;;;;;;;;;;;;;;;14.80;54.35;98443.00;2117137;27;19927;-59
2023/01/17 04:27:13;;;;;;;;;;;;;;;14.80;54.42;98451.13;2123263;27;19934;-59
2023/01/17 04:28:14;;;;;;;;;;;;;;;14.79;54.45;98444.19;2112430;28;20379;-57
2023/01/17 04:29:17;;;;;;;;;;;;;;;14.78;54.16;98443.41;2112472;28;19935;-58
2023/01/17 04:30:18;;;;;;;;;;;;;;;14.79;54.40;98446.91;2123384;27;19927;-55
2023/01/17 04:31:21;;;;;;;;;;;;;;;14.78;54.33;98448.06;2121861;27;19927;-58
2023/01/17 04:32:23;;;;;;;;;;;;;;;14.79;54.09;98449.63;2121800;27;19970;-57
2023/01/17 04:33:25;;;;;;;;;;;;;;;14.78;54.45;98461.66;2119615;27;19928;-59
2023/01/17 04:34:27;;;;;;;;;;;;;;;14.78;54.41;98458.94;2119313;27;19935;-57
2023/01/17 04:35:32;;;;;;;;;;;;;;;14.78;54.24;98453.50;2121941;27;20401;-55
2023/01/17 04:36:35;;;;;;;;;;;;;;;14.77;54.51;98454.72;2114837;28;19924;-59
2023/01/17 04:37:37;;;;;;;;;;;;;;;14.77;54.40;98457.44;2117530;27;19927;-59
2023/01/17 04:38:39;;;;;;;;;;;;;;;14.77;54.14;98460.13;2115123;27;19928;-59
2023/01/17 04:39:41;;;;;;;;;;;;;;;14.76;54.27;98464.81;2123188;27;19927;-58
2023/01/17 04:40:43;;;;;;;;;;;;;;;14.76;54.08;98470.22;2121761;27;19928;-60
2023/01/17 04:41:45;;;;;;;;;;;;;;;14.77;54.13;98462.84;2120727;27;19930;-60
2023/01/17 04:42:48;;;;;;;;;;;;;;;14.76;54.51;98466.78;2121569;27;19927;-59
2023/01/17 04:43:49;;;;;;;;;;;;;;;14.76;54.50;98462.09;2122993;27;19924;-57
2023/01/17 04:44:52;;;;;;;;;;;;;;;14.75;54.44;98460.56;2120266;27;19931;-59
2023/01/17 04:45:54;;;;;;;;;;;;;;;14.75;54.33;98449.69;2114263;27;19931;-60
2023/01/17 04:46:56;;;;;;;;;;;;;;;14.75;54.42;98448.94;2115610;27;19968;-58
2023/01/17 04:48:01;;;;;;;;;;;;;;;14.74;54.39;98450.91;2113954;28;19928;-58
2023/01/17 04:49:03;;;;;;;;;;;;;;;14.75;54.35;98457.84;2104379;28;19928;-58
2023/01/17 04:50:05;;;;;;;;;;;;;;;14.74;54.13;98447.41;2109399;28;20441;-59
2023/01/17 04:51:09;;;;;;;;;;;;;;;14.74;54.12;98452.84;2114635;28;19928;-56
2023/01/17 04:52:11;;;;;;;;;;;;;;;14.74;54.04;98458.28;2119092;27;19931;-58
2023/01/17 04:53:14;;;;;;;;;;;;;;;14.74;54.21;98458.28;2121797;27;20413;-57
2023/01/17 04:54:15;;;;;;;;;;;;;;;14.73;53.98;98457.50;2119567;27;19927;-59
2023/01/17 04:55:18;;;;;;;;;;;;;;;14.74;54.30;98458.28;2121527;27;20469;-58
2023/01/17 04:56:19;;;;;;;;;;;;;;;14.73;54.42;98468.38;2122709;27;19931;-59
2023/01/17 04:57:23;;;;;;;;;;;;;;;14.72;54.27;98461.41;2114217;27;20404;-59
2023/01/17 04:58:26;;;;;;;;;;;;;;;14.73;54.35;98456.75;2113665;27;19947;-59
2023/01/17 04:59:29;;;;;;;;;;;;;;;14.72;54.10;98457.94;2114480;28;19928;-55
2023/01/17 05:00:30;;;;;;;;;;;;;;;14.72;54.33;98457.94;2114448;28;19932;-59
2023/01/17 05:01:33;;;;;;;;;;;;;;;14.72;54.11;98466.09;2114419;28;19932;-56
2023/01/17 05:02:34;;;;;;;;;;;;;;;14.72;54.36;98463.38;2114634;28;19924;-59
2023/01/17 05:03:37;;;;;;;;;;;;;;;14.71;54.49;98459.88;2114259;28;19928;-60
2023/01/17 05:04:39;;;;;;;;;;;;;;;14.71;54.21;98470.00;2115051;28;20301;-57
2023/01/17 05:05:42;;;;;;;;;;;;;;;14.72;54.39;98466.09;2114694;27;19924;-59
2023/01/17 05:06:45;;;;;;;;;;;;;;;14.71;54.10;98470.75;2114275;28;19935;-59
2023/01/17 05:07:52;;;;;;;;;;;;;;;14.71;54.35;98475.44;2114535;28;19934;-56
2023/01/17 05:08:54;;;;;;;;;;;;;;;14.70;53.97;98476.59;2114512;28;19924;-59
2023/01/17 05:09:59;;;;;;;;;;;;;;;14.70;54.27;98469.22;2114560;27;19928;-57
2023/01/17 05:11:01;;;;;;;;;;;;;;;14.70;54.19;98474.66;2114774;27;19927;-58
2023/01/17 05:12:03;;;;;;;;;;;;;;;14.70;54.39;98477.38;2114195;27;19939;-57
2023/01/17 05:13:05;;;;;;;;;;;;;;;14.70;54.28;98479.31;2114090;28;19939;-59
2023/01/17 05:14:09;;;;;;;;;;;;;;;14.70;54.13;98484.75;2114272;28;20295;-56
2023/01/17 05:15:10;;;;;;;;;;;;;;;14.70;54.29;98479.31;2114464;27;19928;-56
2023/01/17 05:16:13;;;;;;;;;;;;;;;14.69;54.37;98484.00;2105284;28;19932;-58
2023/01/17 05:17:15;;;;;;;;;;;;;;;14.69;54.02;98485.94;2105450;28;19924;-58
2023/01/17 05:18:18;;;;;;;;;;;;;;;14.69;54.10;98489.44;2114402;28;19938;-59
2023/01/17 05:19:19;;;;;;;;;;;;;;;14.69;54.24;98492.16;2114707;27;19931;-59
2023/01/17 05:20:23;;;;;;;;;;;;;;;14.69;54.31;98485.94;2114478;28;20010;-59
2023/01/17 05:21:25;;;;;;;;;;;;;;;14.68;54.05;98490.59;2113803;28;19924;-59
2023/01/17 05:22:29;;;;;;;;;;;;;;;14.68;54.46;98489.84;2114515;27;19935;-53
2023/01/17 05:23:31;;;;;;;;;;;;;;;14.68;54.25;98492.56;2120932;27;19923;-58
2023/01/17 05:24:34;;;;;;;;;;;;;;;14.67;54.32;98497.22;2118983;27;19928;-56
2023/01/17 05:25:36;;;;;;;;;;;;;;;14.67;54.30;98489.09;2114259;28;19928;-58
2023/01/17 05:26:39;;;;;;;;;;;;;;;14.67;54.21;98491.81;2105755;28;19936;-59
2023/01/17 05:27:41;;;;;;;;;;;;;;;14.67;54.26;98491.03;2110350;28;19932;-59
2023/01/17 05:28:43;;;;;;;;;;;;;;;14.67;53.96;98491.03;2114237;28;19939;-59
2023/01/17 05:29:45;;;;;;;;;;;;;;;14.68;54.05;98498.00;2115056;27;19923;-59
2023/01/17 05:30:47;;;;;;;;;;;;;;;14.66;54.17;98492.22;2114074;28;19931;-58
2023/01/17 05:31:49;;;;;;;;;;;;;;;14.67;53.99;98491.03;2114406;28;19927;-59
2023/01/17 05:32:53;;;;;;;;;;;;;;;14.67;54.07;98494.50;2114891;27;19928;-59
2023/01/17 05:33:55;;;;;;;;;;;;;;;14.66;54.30;98495.72;2120392;27;19930;-59
2023/01/17 05:34:57;;;;;;;;;;;;;;;14.66;54.32;98492.22;2114493;27;19928;-58
2023/01/17 05:35:59;;;;;;;;;;;;;;;14.66;54.16;98489.50;2105721;28;19928;-59
2023/01/17 05:37:01;;;;;;;;;;;;;;;14.66;54.35;98500.38;2097036;28;19924;-60
2023/01/17 05:38:05;;;;;;;;;;;;;;;14.65;54.12;98502.31;2105180;28;20346;-59
2023/01/17 05:39:07;;;;;;;;;;;;;;;14.66;54.28;98505.81;2114130;27;19946;-60
2023/01/17 05:40:10;;;;;;;;;;;;;;;14.65;54.16;98502.31;2114329;28;19928;-60
2023/01/17 05:41:11;;;;;;;;;;;;;;;14.64;54.29;98500.81;2114082;27;19938;-59
2023/01/17 05:42:14;;;;;;;;;;;;;;;14.64;54.37;98508.94;2114099;27;19931;-60
2023/01/17 05:43:17;;;;;;;;;;;;;;;14.65;54.30;98509.72;2114012;28;19943;-60
2023/01/17 05:44:18;;;;;;;;;;;;;;;14.64;54.14;98502.75;2114277;27;19934;-53
2023/01/17 05:45:22;;;;;;;;;;;;;;;14.64;53.94;98502.75;2114285;27;19934;-60
2023/01/17 05:46:23;;;;;;;;;;;;;;;14.64;54.36;98508.19;2114167;28;19938;-60
2023/01/17 05:47:26;;;;;;;;;;;;;;;14.64;54.17;98513.59;2114431;27;19999;-60
2023/01/17 05:48:28;;;;;;;;;;;;;;;14.64;54.30;98508.94;2113541;28;19927;-58
2023/01/17 05:49:30;;;;;;;;;;;;;;;14.64;54.24;98513.59;2114088;28;19928;-57
2023/01/17 05:50:32;;;;;;;;;;;;;;;14.64;54.52;98513.59;2114353;27;20005;-59
2023/01/17 05:51:36;;;;;;;;;;;;;;;14.63;54.53;98514.81;2114365;28;19927;-58
2023/01/17 05:52:38;;;;;;;;;;;;;;;14.62;54.47;98514.03;2114059;28;19984;-59
2023/01/17 05:53:42;;;;;;;;;;;;;;;14.63;54.24;98517.53;2113895;28;19928;-60
2023/01/17 05:54:44;;;;;;;;;;;;;;;14.62;54.25;98515.97;2113982;28;19928;-58
2023/01/17 05:55:48;;;;;;;;;;;;;;;14.63;54.31;98525.66;2119487;27;20298;-59
2023/01/17 05:56:49;;;;;;;;;;;;;;;14.62;54.42;98522.19;2119121;27;19927;-58
2023/01/17 05:57:52;;;;;;;;;;;;;;;14.63;54.49;98528.38;2104980;28;19935;-60
2023/01/17 05:58:55;;;;;;;;;;;;;;;14.62;54.41;98530.31;2104388;28;19932;-58
2023/01/17 05:59:56;;;;;;;;;;;;;;;14.62;54.37;98526.84;2113688;27;19947;-60
2023/01/17 06:01:00;;;;;;;;;;;;;;;14.61;54.34;98523.38;2113989;28;19928;-55
2023/01/17 06:02:01;;;;;;;;;;;;;;;14.61;54.45;98528.81;2113890;27;19931;-60
2023/01/17 06:03:04;;;;;;;;;;;;;;;14.62;54.32;98529.56;2113725;27;19935;-58
2023/01/17 06:04:05;;;;;;;;;;;;;;;14.62;54.48;98529.56;2114080;28;19949;-60
2023/01/17 06:05:08;;;;;;;;;;;;;;;14.62;54.27;98543.13;2115315;27;20401;-59
2023/01/17 06:06:10;;;;;;;;;;;;;;;14.61;54.15;98530.75;2114361;28;19928;-59
2023/01/17 06:07:12;;;;;;;;;;;;;;;14.61;54.36;98538.91;2114418;27;19923;-60
2023/01/17 06:08:15;;;;;;;;;;;;;;;14.60;54.41;98538.13;2114877;27;19927;-60
2023/01/17 06:09:18;;;;;;;;;;;;;;;14.60;54.39;98540.09;2114045;28;20002;-58
2023/01/17 06:10:21;;;;;;;;;;;;;;;14.60;54.11;98545.53;2114808;27;19928;-59
2023/01/17 06:11:22;;;;;;;;;;;;;;;14.61;54.43;98552.47;2114549;27;19964;-57
2023/01/17 06:12:25;;;;;;;;;;;;;;;14.61;54.69;98557.91;2113804;28;20015;-55
2023/01/17 06:13:28;;;;;;;;;;;;;;;14.60;54.22;98556.38;2114580;27;19924;-58
2023/01/17 06:14:29;;;;;;;;;;;;;;;14.59;54.62;98558.31;2114810;27;19935;-57
2023/01/17 06:15:32;;;;;;;;;;;;;;;14.59;54.38;98555.59;2113772;28;19927;-56
2023/01/17 06:16:35;;;;;;;;;;;;;;;14.59;54.28;98554.84;2114800;27;20375;-59
2023/01/17 06:17:37;;;;;;;;;;;;;;;14.59;54.33;98561.03;2114627;27;20014;-55
2023/01/17 06:18:39;;;;;;;;;;;;;;;14.59;54.58;98561.03;2113778;28;19927;-59
2023/01/17 06:19:41;;;;;;;;;;;;;;;14.59;54.49;98546.69;2114653;27;19934;-59
2023/01/17 06:20:43;;;;;;;;;;;;;;;14.59;54.30;98554.84;2113825;28;19928;-59
2023/01/17 06:21:46;;;;;;;;;;;;;;;14.59;54.38;98560.28;2114413;27;19935;-59
2023/01/17 06:22:47;;;;;;;;;;;;;;;14.59;54.32;98554.84;2113467;28;19927;-58
2023/01/17 06:23:50;;;;;;;;;;;;;;;14.59;54.50;98554.84;2113853;28;20405;-59
2023/01/17 06:24:53;;;;;;;;;;;;;;;14.58;54.33;98554.09;2115001;27;19932;-59
2023/01/17 06:25:55;;;;;;;;;;;;;;;14.59;54.41;98554.84;2114518;27;19942;-59
2023/01/17 06:26:57;;;;;;;;;;;;;;;14.58;54.42;98561.47;2113942;28;20656;-56
2023/01/17 06:28:01;;;;;;;;;;;;;;;14.58;54.33;98556.03;2115481;27;19931;-59
2023/01/17 06:29:03;;;;;;;;;;;;;;;14.57;54.15;98552.53;2115429;27;19939;-59
2023/01/17 06:30:06;;;;;;;;;;;;;;;14.58;54.37;98550.59;2113661;28;20747;-59
2023/01/17 06:31:09;;;;;;;;;;;;;;;14.58;54.40;98547.88;2120609;27;21051;-59
2023/01/17 06:32:12;;;;;;;;;;;;;;;14.58;54.12;98553.31;2121796;27;19927;-57
2023/01/17 06:33:15;;;;;;;;;;;;;;;14.57;54.55;98554.53;2113731;28;19924;-59
2023/01/17 06:34:17;;;;;;;;;;;;;;;14.56;54.40;98551.03;2114106;27;19928;-58
2023/01/17 06:35:19;;;;;;;;;;;;;;;14.56;54.12;98559.19;2120781;27;19927;-55
2023/01/17 06:36:23;;;;;;;;;;;;;;;14.56;54.13;98561.88;2113653;28;19923;-60
2023/01/17 06:37:25;;;;;;;;;;;;;;;14.56;54.19;98556.47;2118657;27;19927;-60
2023/01/17 06:38:28;;;;;;;;;;;;;;;14.56;54.28;98556.47;2121145;27;19923;-60
2023/01/17 06:39:30;;;;;;;;;;;;;;;14.56;54.36;98561.13;2120937;27;19927;-57
2023/01/17 06:40:34;;;;;;;;;;;;;;;14.55;54.31;98565.81;2121654;27;19923;-58
2023/01/17 06:41:35;;;;;;;;;;;;;;;14.55;54.26;98560.38;2122225;27;20371;-55
2023/01/17 06:42:38;;;;;;;;;;;;;;;14.55;54.37;98562.31;2121908;27;19927;-57
2023/01/17 06:43:39;;;;;;;;;;;;;;;14.54;54.08;98566.22;2120366;27;19930;-59
2023/01/17 06:44:42;;;;;;;;;;;;;;;14.55;54.15;98570.47;2113678;28;19935;-59
2023/01/17 06:45:43;;;;;;;;;;;;;;;14.55;54.22;98565.03;2113453;28;19928;-59
2023/01/17 06:46:47;;;;;;;;;;;;;;;14.54;54.21;98577.09;2113438;27;19932;-59
2023/01/17 06:47:49;;;;;;;;;;;;;;;14.54;54.03;98577.09;2113671;28;20734;-58
2023/01/17 06:48:51;;;;;;;;;;;;;;;14.54;54.04;98579.81;2113618;28;19928;-54
2023/01/17 06:49:54;;;;;;;;;;;;;;;14.53;54.23;98580.97;2113745;28;19934;-56
2023/01/17 06:50:56;;;;;;;;;;;;;;;14.53;54.04;98581.75;2113770;27;19932;-55